createdAt,value
2019-01-15T00:00:15.616Z,7.40
2019-01-15T00:02:43.303Z,7.90
2019-01-15T00:05:11.053Z,7.70
2019-01-15T00:07:38.753Z,7.20
2019-01-15T00:10:06.519Z,7.30
2019-01-15T00:12:34.268Z,7.00
2019-01-15T00:15:01.923Z,7.40
2019-01-15T00:17:29.597Z,7.70
2019-01-15T00:19:57.374Z,7.10
2019-01-15T00:22:25.127Z,6.40
2019-01-15T00:24:52.789Z,6.10
2019-01-15T00:27:19.847Z,5.70
2019-01-15T00:29:46.856Z,6.20
2019-01-15T00:32:15.611Z,6.00
2019-01-15T00:34:42.608Z,6.50
2019-01-15T00:37:09.666Z,6.90
2019-01-15T00:39:36.699Z,6.40
2019-01-15T00:42:04.493Z,6.30
2019-01-15T00:44:31.477Z,6.00
2019-01-15T00:46:58.578Z,6.30
2019-01-15T00:49:26.224Z,6.00
2019-01-15T00:51:53.959Z,5.70
2019-01-15T00:54:21.775Z,5.50
2019-01-15T00:56:49.426Z,5.10
2019-01-15T00:59:17.094Z,5.20
2019-01-15T01:01:44.195Z,5.40
2019-01-15T01:04:12.024Z,5.40
2019-01-15T01:06:39.708Z,5.50
2019-01-15T01:09:08.455Z,6.50
2019-01-15T01:11:36.221Z,6.50
2019-01-15T01:14:03.373Z,6.80
2019-01-15T01:16:31.022Z,6.70
2019-01-15T01:18:58.081Z,6.10
2019-01-15T01:21:25.842Z,6.10
2019-01-15T01:23:53.499Z,5.90
2019-01-15T01:26:21.272Z,5.80
2019-01-15T01:28:48.949Z,6.20
2019-01-15T01:31:16.712Z,6.30
2019-01-15T01:33:43.800Z,6.60
2019-01-15T01:36:11.561Z,6.30
2019-01-15T01:38:39.288Z,6.00
2019-01-15T01:41:07.541Z,5.90
2019-01-15T01:43:35.228Z,6.00
2019-01-15T01:46:02.889Z,6.40
2019-01-15T01:48:30.639Z,6.40
2019-01-15T01:50:58.298Z,6.10
2019-01-15T01:53:25.295Z,6.50
2019-01-15T01:55:53.003Z,7.00
2019-01-15T01:58:20.071Z,7.00
2019-01-15T02:00:47.829Z,7.10
2019-01-15T02:03:14.877Z,6.90
2019-01-15T02:05:42.538Z,6.90
2019-01-15T02:08:10.318Z,6.30
2019-01-15T02:10:37.359Z,6.30
2019-01-15T02:13:05.116Z,6.20
2019-01-15T02:15:32.274Z,6.20
2019-01-15T02:17:59.270Z,6.00
2019-01-15T02:20:26.915Z,6.10
2019-01-15T02:22:53.582Z,6.00
2019-01-15T02:25:20.547Z,5.90
2019-01-15T02:27:48.237Z,6.20
2019-01-15T02:30:16.395Z,6.50
2019-01-15T02:32:43.225Z,7.10
2019-01-15T02:35:10.293Z,6.90
2019-01-15T02:37:38.044Z,7.50
2019-01-15T02:40:05.731Z,8.30
2019-01-15T02:42:33.379Z,8.60
2019-01-15T02:45:00.492Z,8.90
2019-01-15T02:47:28.194Z,8.50
2019-01-15T02:49:55.858Z,8.60
2019-01-15T02:52:22.977Z,8.50
2019-01-15T02:54:50.656Z,8.40
2019-01-15T02:57:18.431Z,7.80
2019-01-15T02:59:45.427Z,7.60
2019-01-15T03:02:13.126Z,7.60
2019-01-15T03:04:40.319Z,7.70
2019-01-15T03:07:08.058Z,7.30
2019-01-15T03:09:35.707Z,7.30
2019-01-15T03:12:03.484Z,6.80
2019-01-15T03:14:30.463Z,7.70
2019-01-15T03:16:58.196Z,8.20
2019-01-15T03:19:25.292Z,8.70
2019-01-15T03:21:52.402Z,8.40
2019-01-15T03:24:19.519Z,8.30
2019-01-15T03:26:46.459Z,8.60
2019-01-15T03:29:13.484Z,8.30
2019-01-15T03:31:40.553Z,8.00
2019-01-15T03:34:08.339Z,8.50
2019-01-15T03:36:35.347Z,8.00
2019-01-15T03:39:02.451Z,7.90
2019-01-15T03:41:30.204Z,8.00
2019-01-15T03:43:57.984Z,8.30
2019-01-15T03:46:25.025Z,8.40
2019-01-15T03:48:52.789Z,8.90
2019-01-15T03:51:20.445Z,9.10
2019-01-15T03:53:48.226Z,9.10
2019-01-15T03:56:15.316Z,9.40
2019-01-15T03:58:43.009Z,9.30
2019-01-15T04:01:10.232Z,8.90
2019-01-15T04:03:38.039Z,8.80
2019-01-15T04:06:05.707Z,9.20
2019-01-15T04:08:32.736Z,8.90
2019-01-15T04:10:59.735Z,8.10
2019-01-15T04:13:27.468Z,7.80
2019-01-15T04:15:55.218Z,7.20
2019-01-15T04:18:22.332Z,7.30
2019-01-15T04:20:49.362Z,6.80
2019-01-15T04:23:17.378Z,6.60
2019-01-15T04:25:45.058Z,6.40
2019-01-15T04:28:12.716Z,6.40
2019-01-15T04:30:40.480Z,6.20
2019-01-15T04:33:08.154Z,6.40
2019-01-15T04:35:35.258Z,6.30
2019-01-15T04:38:03.063Z,6.90
2019-01-15T04:40:30.837Z,6.80
2019-01-15T04:42:58.583Z,6.80
2019-01-15T04:45:25.879Z,7.00
2019-01-15T04:47:52.893Z,7.10
2019-01-15T04:50:20.543Z,7.60
2019-01-15T04:52:47.732Z,7.80
2019-01-15T04:55:15.481Z,7.50
2019-01-15T04:57:43.231Z,7.40
2019-01-15T05:00:10.992Z,7.30
2019-01-15T05:02:38.050Z,7.60
2019-01-15T05:05:05.703Z,7.60
2019-01-15T05:07:33.341Z,7.40
2019-01-15T05:10:00.324Z,7.60
2019-01-15T05:12:28.094Z,7.60
2019-01-15T05:14:56.821Z,7.50
2019-01-15T05:17:24.551Z,7.60
2019-01-15T05:19:52.309Z,7.20
2019-01-15T05:22:20.058Z,7.30
2019-01-15T05:24:47.719Z,7.10
2019-01-15T05:27:15.517Z,6.90
2019-01-15T05:29:42.640Z,6.90
2019-01-15T05:32:09.648Z,6.70
2019-01-15T05:34:37.344Z,6.90
2019-01-15T05:37:05.428Z,7.00
2019-01-15T05:39:32.420Z,7.20
2019-01-15T05:42:00.133Z,7.20
2019-01-15T05:44:27.903Z,7.50
2019-01-15T05:46:55.550Z,7.80
2019-01-15T05:49:22.672Z,8.20
2019-01-15T05:51:50.372Z,8.60
2019-01-15T05:54:18.014Z,8.60
2019-01-15T05:56:45.158Z,9.30
2019-01-15T05:59:12.147Z,9.70
2019-01-15T06:01:39.957Z,10.00
2019-01-15T06:04:08.271Z,10.30
2019-01-15T06:06:35.288Z,10.40
2019-01-15T06:09:03.029Z,10.40
2019-01-15T06:11:30.061Z,10.40
2019-01-15T06:13:57.787Z,10.00
2019-01-15T06:16:25.572Z,9.60
2019-01-15T06:18:52.663Z,9.30
2019-01-15T06:21:19.781Z,9.60
2019-01-15T06:23:47.401Z,9.70
2019-01-15T06:26:15.169Z,9.10
2019-01-15T06:28:42.961Z,9.40
2019-01-15T06:31:10.810Z,9.10
2019-01-15T06:33:37.935Z,9.50
2019-01-15T06:36:04.967Z,8.80
2019-01-15T06:38:31.894Z,8.60
2019-01-15T06:40:59.162Z,8.40
2019-01-15T06:43:26.888Z,7.90
2019-01-15T06:45:53.753Z,7.80
2019-01-15T06:48:20.824Z,8.00
2019-01-15T06:50:47.920Z,7.50
2019-01-15T06:53:15.019Z,7.30
2019-01-15T06:55:42.165Z,8.10
2019-01-15T06:58:09.866Z,8.50
2019-01-15T07:00:37.551Z,8.20
2019-01-15T07:03:04.635Z,7.90
2019-01-15T07:05:32.352Z,7.80
2019-01-15T07:07:58.930Z,8.00
2019-01-15T07:10:25.992Z,8.10
2019-01-15T07:12:53.696Z,7.70
2019-01-15T07:15:20.272Z,7.60
2019-01-15T07:17:47.336Z,7.60
2019-01-15T07:20:14.286Z,7.60
2019-01-15T07:22:40.902Z,7.90
2019-01-15T07:25:08.747Z,8.00
2019-01-15T07:27:35.325Z,8.60
2019-01-15T07:30:02.378Z,9.20
2019-01-15T07:32:30.186Z,9.40
2019-01-15T07:34:59.830Z,8.80
2019-01-15T07:37:26.405Z,8.30
2019-01-15T07:39:53.087Z,7.90
2019-01-15T07:42:20.076Z,7.80
2019-01-15T07:44:46.715Z,8.20
2019-01-15T07:47:13.753Z,8.50
2019-01-15T07:49:40.801Z,8.70
2019-01-15T07:52:07.408Z,8.60
2019-01-15T07:54:34.103Z,8.90
2019-01-15T07:57:01.134Z,9.80
2019-01-15T07:59:28.183Z,9.60
2019-01-15T08:01:54.859Z,9.60
2019-01-15T08:04:21.464Z,9.30
2019-01-15T08:06:49.157Z,8.90
2019-01-15T08:09:16.221Z,8.90
2019-01-15T08:11:43.211Z,9.20
2019-01-15T08:14:12.206Z,9.20
2019-01-15T08:16:38.636Z,9.50
2019-01-15T08:19:05.710Z,10.10
2019-01-15T08:21:32.801Z,9.50
2019-01-15T08:24:00.196Z,9.00
2019-01-15T08:26:28.017Z,8.70
2019-01-15T08:28:55.116Z,8.40
2019-01-15T08:31:21.829Z,8.30
2019-01-15T08:33:48.774Z,8.00
2019-01-15T08:36:15.483Z,7.80
2019-01-15T08:38:42.583Z,8.40
2019-01-15T08:41:10.289Z,8.80
2019-01-15T08:43:36.876Z,9.10
2019-01-15T08:46:04.260Z,9.10
2019-01-15T08:48:31.268Z,9.60
2019-01-15T08:50:58.330Z,9.60
2019-01-15T08:53:25.399Z,9.50
2019-01-15T08:55:51.983Z,9.90
2019-01-15T08:58:18.956Z,9.90
2019-01-15T09:00:46.787Z,9.90
2019-01-15T09:03:13.722Z,9.30
2019-01-15T09:05:42.181Z,8.90
2019-01-15T09:08:09.409Z,8.40
2019-01-15T09:10:36.370Z,8.20
2019-01-15T09:13:03.404Z,8.20
2019-01-15T09:15:30.109Z,8.00
2019-01-15T09:17:56.982Z,7.90
2019-01-15T09:20:24.144Z,8.10
2019-01-15T09:22:51.284Z,8.90
2019-01-15T09:25:17.874Z,9.00
2019-01-15T09:27:45.426Z,9.90
2019-01-15T09:30:13.363Z,10.30
2019-01-15T09:32:41.110Z,10.40
2019-01-15T09:35:08.271Z,10.70
2019-01-15T09:37:37.176Z,10.60
2019-01-15T09:40:04.285Z,10.50
2019-01-15T09:42:31.974Z,11.00
2019-01-15T09:44:59.363Z,11.10
2019-01-15T09:47:26.408Z,10.90
2019-01-15T09:49:53.498Z,10.60
2019-01-15T09:52:21.191Z,10.20
2019-01-15T09:54:48.163Z,9.90
2019-01-15T09:57:15.232Z,9.70
2019-01-15T09:59:43.002Z,9.60
2019-01-15T10:02:09.997Z,8.70
2019-01-15T10:04:37.697Z,8.70
2019-01-15T10:07:05.462Z,8.10
2019-01-15T10:09:32.074Z,8.40
2019-01-15T10:11:59.636Z,8.20
2019-01-15T10:14:26.717Z,8.20
2019-01-15T10:16:53.702Z,8.20
2019-01-15T10:19:20.770Z,8.30
2019-01-15T10:21:47.417Z,8.50
2019-01-15T10:24:14.010Z,9.30
2019-01-15T10:26:40.980Z,9.70
2019-01-15T10:29:07.649Z,10.30
2019-01-15T10:31:34.678Z,10.20
2019-01-15T10:34:01.298Z,9.60
2019-01-15T10:36:29.024Z,9.70
2019-01-15T10:38:55.958Z,9.80
2019-01-15T10:41:22.651Z,9.90
2019-01-15T10:43:49.590Z,10.20
2019-01-15T10:46:16.200Z,10.50
2019-01-15T10:48:43.216Z,11.30
2019-01-15T10:51:10.288Z,11.90
2019-01-15T10:53:37.365Z,12.50
2019-01-15T10:56:04.402Z,12.80
2019-01-15T10:58:31.423Z,12.10
2019-01-15T11:00:58.509Z,11.40
2019-01-15T11:03:25.112Z,11.40
2019-01-15T11:05:51.942Z,11.50
2019-01-15T11:08:19.070Z,12.00
2019-01-15T11:10:46.290Z,12.10
2019-01-15T11:13:12.885Z,11.40
2019-01-15T11:15:43.374Z,10.60
2019-01-15T11:18:08.677Z,10.30
2019-01-15T11:20:35.795Z,9.80
2019-01-15T11:23:02.872Z,8.90
2019-01-15T11:25:29.846Z,8.60
2019-01-15T11:27:56.907Z,8.30
2019-01-15T11:30:23.555Z,8.10
2019-01-15T11:32:50.157Z,7.70
2019-01-15T11:35:17.109Z,7.80
2019-01-15T11:37:43.758Z,7.90
2019-01-15T11:40:10.882Z,8.00
2019-01-15T11:42:37.932Z,8.10
2019-01-15T11:45:05.645Z,7.70
2019-01-15T11:47:32.660Z,7.70
2019-01-15T11:49:59.672Z,7.90
2019-01-15T11:52:28.025Z,7.90
2019-01-15T11:54:54.705Z,7.90
2019-01-15T11:57:25.170Z,8.20
2019-01-15T11:59:52.999Z,8.40
2019-01-15T12:02:22.296Z,8.00
2019-01-15T12:04:48.723Z,7.90
2019-01-15T12:07:15.966Z,7.90
2019-01-15T12:09:43.579Z,7.70
2019-01-15T12:12:10.596Z,7.50
2019-01-15T12:14:37.628Z,8.00
2019-01-15T12:17:05.371Z,7.90
2019-01-15T12:19:32.023Z,8.00
2019-01-15T12:21:58.698Z,8.30
2019-01-15T12:24:25.383Z,8.10
2019-01-15T12:26:53.240Z,8.50
2019-01-15T12:29:20.489Z,8.80
2019-01-15T12:31:47.519Z,9.30
2019-01-15T12:34:15.357Z,9.10
2019-01-15T12:36:42.446Z,9.20
2019-01-15T12:39:10.242Z,9.10
2019-01-15T12:41:38.119Z,8.90
2019-01-15T12:44:04.703Z,8.80
2019-01-15T12:46:32.543Z,8.30
2019-01-15T12:48:59.593Z,8.00
2019-01-15T12:51:26.675Z,8.10
2019-01-15T12:53:53.296Z,7.90
2019-01-15T12:56:20.327Z,7.80
2019-01-15T12:58:48.021Z,8.20
2019-01-15T13:01:15.686Z,8.60
2019-01-15T13:03:43.601Z,8.40
2019-01-15T13:06:11.214Z,8.00
2019-01-15T13:08:39.229Z,8.00
2019-01-15T13:11:06.178Z,7.80
2019-01-15T13:13:34.022Z,7.50
2019-01-15T13:16:01.772Z,7.20
2019-01-15T13:18:29.461Z,7.40
2019-01-15T13:20:56.523Z,7.30
2019-01-15T13:23:23.138Z,7.60
2019-01-15T13:25:50.781Z,7.40
2019-01-15T13:28:17.888Z,7.50
2019-01-15T13:30:44.996Z,7.30
2019-01-15T13:33:13.011Z,7.60
2019-01-15T13:35:43.127Z,7.80
2019-01-15T13:38:11.661Z,7.60
2019-01-15T13:40:38.663Z,7.90
2019-01-15T13:43:06.378Z,8.10
2019-01-15T13:45:34.188Z,8.50
2019-01-15T13:48:02.960Z,9.20
2019-01-15T13:50:30.059Z,9.30
2019-01-15T13:52:56.750Z,9.30
2019-01-15T13:55:23.960Z,9.30
2019-01-15T13:57:51.000Z,9.60
2019-01-15T14:00:18.777Z,9.20
2019-01-15T14:02:45.382Z,8.70
2019-01-15T14:05:13.291Z,8.80
2019-01-15T14:07:41.047Z,9.60
2019-01-15T14:10:07.664Z,9.60
2019-01-15T14:12:34.283Z,9.60
2019-01-15T14:15:01.456Z,9.80
2019-01-15T14:17:28.040Z,9.40
2019-01-15T14:19:55.811Z,9.10
2019-01-15T14:22:22.895Z,8.90
2019-01-15T14:24:49.962Z,8.90
2019-01-15T14:27:16.566Z,9.20
2019-01-15T14:29:43.622Z,9.90
2019-01-15T14:32:10.224Z,9.90
2019-01-15T14:34:36.862Z,10.00
2019-01-15T14:37:03.808Z,9.70
2019-01-15T14:39:30.879Z,9.60
2019-01-15T14:41:58.226Z,9.20
2019-01-15T14:44:25.296Z,9.90
2019-01-15T14:46:51.871Z,10.10
2019-01-15T14:49:18.974Z,9.80
2019-01-15T14:51:46.011Z,10.30
2019-01-15T14:54:13.062Z,9.50
2019-01-15T14:56:40.098Z,10.20
2019-01-15T14:59:07.158Z,10.10
2019-01-15T15:01:34.218Z,9.50
2019-01-15T15:04:01.184Z,9.90
2019-01-15T15:06:27.800Z,9.80
2019-01-15T15:08:54.464Z,9.10
2019-01-15T15:11:21.474Z,8.60
2019-01-15T15:13:48.139Z,8.40
2019-01-15T15:16:15.140Z,8.90
2019-01-15T15:18:42.230Z,9.10
2019-01-15T15:21:09.922Z,8.90
2019-01-15T15:23:36.945Z,9.10
2019-01-15T15:26:04.078Z,8.80
2019-01-15T15:28:31.137Z,8.60
2019-01-15T15:30:58.166Z,9.00
2019-01-15T15:33:25.325Z,9.20
2019-01-15T15:35:52.412Z,9.10
2019-01-15T15:38:19.534Z,8.80
2019-01-15T15:40:46.583Z,9.00
2019-01-15T15:43:13.220Z,9.00
2019-01-15T15:45:40.335Z,8.70
2019-01-15T15:48:06.985Z,8.50
2019-01-15T15:50:33.590Z,8.40
2019-01-15T15:53:00.251Z,8.70
2019-01-15T15:55:27.294Z,8.80
2019-01-15T15:57:53.924Z,9.00
2019-01-15T16:00:20.900Z,8.70
2019-01-15T16:02:47.545Z,8.60
2019-01-15T16:05:14.156Z,8.30
2019-01-15T16:07:41.143Z,8.50
2019-01-15T16:10:08.173Z,8.40
2019-01-15T16:12:35.343Z,8.20
2019-01-15T16:15:01.958Z,8.80
2019-01-15T16:17:28.934Z,8.70
2019-01-15T16:19:55.621Z,8.80
2019-01-15T16:22:22.441Z,8.90
2019-01-15T16:24:49.559Z,8.90
2019-01-15T16:27:16.686Z,9.70
2019-01-15T16:29:43.695Z,9.80
2019-01-15T16:32:10.656Z,9.40
2019-01-15T16:34:37.757Z,9.40
2019-01-15T16:37:04.376Z,9.00
2019-01-15T16:39:31.412Z,9.20
2019-01-15T16:41:58.087Z,9.40
2019-01-15T16:44:25.006Z,9.50
2019-01-15T16:46:51.703Z,9.50
2019-01-15T16:49:18.685Z,9.50
2019-01-15T16:51:45.331Z,9.90
2019-01-15T16:54:12.519Z,10.20
2019-01-15T16:56:39.658Z,10.20
2019-01-15T16:59:06.317Z,10.40
2019-01-15T17:01:33.210Z,10.70
2019-01-15T17:03:59.899Z,10.80
2019-01-15T17:06:26.951Z,10.50
2019-01-15T17:08:54.339Z,10.30
2019-01-15T17:11:21.042Z,10.00
2019-01-15T17:13:48.853Z,10.10
2019-01-15T17:16:15.635Z,10.40
2019-01-15T17:18:42.290Z,10.00
2019-01-15T17:21:08.933Z,9.70
2019-01-15T17:23:35.601Z,9.70
2019-01-15T17:26:02.657Z,9.90
2019-01-15T17:28:29.742Z,10.00
2019-01-15T17:30:56.419Z,10.00
2019-01-15T17:33:23.051Z,9.80
2019-01-15T17:35:50.117Z,9.50
2019-01-15T17:38:16.759Z,9.40
2019-01-15T17:40:43.702Z,9.80
2019-01-15T17:43:10.801Z,10.00
2019-01-15T17:45:37.471Z,10.20
2019-01-15T17:48:04.607Z,10.60
2019-01-15T17:50:31.284Z,10.60
2019-01-15T17:52:58.049Z,10.30
2019-01-15T17:55:25.140Z,10.50
2019-01-15T17:57:51.829Z,10.50
2019-01-15T18:00:19.071Z,10.60
2019-01-15T18:02:46.181Z,11.00
2019-01-15T18:05:13.333Z,11.10
2019-01-15T18:07:40.287Z,10.80
2019-01-15T18:10:07.305Z,10.60
2019-01-15T18:12:34.088Z,10.20
2019-01-15T18:15:01.901Z,10.40
2019-01-15T18:17:28.591Z,10.50
2019-01-15T18:19:55.721Z,10.80
2019-01-15T18:22:22.413Z,11.30
2019-01-15T18:24:49.057Z,11.40
2019-01-15T18:27:15.861Z,11.90
2019-01-15T18:29:42.579Z,12.30
2019-01-15T18:32:09.618Z,11.80
2019-01-15T18:34:36.370Z,11.80
2019-01-15T18:37:15.103Z,11.00
2019-01-15T18:39:42.469Z,11.00
2019-01-15T18:42:09.181Z,10.60
2019-01-15T18:44:37.015Z,10.80
2019-01-15T18:47:04.110Z,10.20
2019-01-15T18:49:30.835Z,10.30
2019-01-15T18:51:57.566Z,10.70
2019-01-15T18:54:24.635Z,10.60
2019-01-15T18:56:51.783Z,11.00
2019-01-15T18:59:18.445Z,11.10
2019-01-15T19:01:45.554Z,11.60
2019-01-15T19:04:12.619Z,11.40
2019-01-15T19:06:39.357Z,11.50
2019-01-15T19:09:06.505Z,11.50
2019-01-15T19:11:33.292Z,11.70
2019-01-15T19:14:03.577Z,11.70
2019-01-15T19:16:28.902Z,11.00
2019-01-15T19:18:55.599Z,10.80
2019-01-15T19:21:22.338Z,11.10
2019-01-15T19:23:49.105Z,10.70
2019-01-15T19:26:15.954Z,10.70
2019-01-15T19:28:47.799Z,11.30
2019-01-15T19:31:14.091Z,11.20
2019-01-15T19:33:41.088Z,11.10
2019-01-15T19:36:07.754Z,11.30
2019-01-15T19:38:34.569Z,11.20
2019-01-15T19:41:01.815Z,11.50
2019-01-15T19:43:28.730Z,11.70
2019-01-15T19:46:00.076Z,11.00
2019-01-15T19:48:28.172Z,11.30
2019-01-15T19:50:57.262Z,11.50
2019-01-15T19:53:24.125Z,11.40
2019-01-15T19:55:50.762Z,11.40
2019-01-15T19:58:19.941Z,11.80
2019-01-15T20:00:47.355Z,11.90
2019-01-15T20:03:17.876Z,11.80
2019-01-15T20:05:44.732Z,11.60
2019-01-15T20:08:12.813Z,11.30
2019-01-15T20:10:50.674Z,11.10
2019-01-15T20:13:48.038Z,11.20
2019-01-15T20:15:54.894Z,10.70
2019-01-15T20:18:27.014Z,11.00
2019-01-15T20:20:53.827Z,11.20
2019-01-15T20:23:20.558Z,11.10
2019-01-15T20:25:47.321Z,11.30
2019-01-15T20:28:14.424Z,11.30
2019-01-15T20:30:42.201Z,11.20
2019-01-15T20:33:09.419Z,11.20
2019-01-15T20:35:36.482Z,11.10
2019-01-15T20:38:04.401Z,11.20
2019-01-15T20:40:31.163Z,11.00
2019-01-15T20:42:58.287Z,10.80
2019-01-15T20:45:25.007Z,10.60
2019-01-15T20:47:52.224Z,10.20
2019-01-15T20:50:18.871Z,10.00
2019-01-15T20:52:45.940Z,9.50
2019-01-15T20:55:12.984Z,9.30
2019-01-15T20:57:39.591Z,9.30
2019-01-15T21:00:06.302Z,9.30
2019-01-15T21:02:33.324Z,9.40
2019-01-15T21:05:01.019Z,9.30
2019-01-15T21:07:27.756Z,9.20
2019-01-15T21:09:56.254Z,9.00
2019-01-15T21:12:23.099Z,8.90
2019-01-15T21:14:49.762Z,8.90
2019-01-15T21:17:16.885Z,9.00
2019-01-15T21:19:43.465Z,9.10
2019-01-15T21:22:11.267Z,9.10
2019-01-15T21:24:37.904Z,9.00
2019-01-15T21:27:04.486Z,8.80
2019-01-15T21:29:31.335Z,8.70
2019-01-15T21:31:57.948Z,9.20
2019-01-15T21:34:24.540Z,9.20
2019-01-15T21:36:52.612Z,9.30
2019-01-15T21:39:19.306Z,9.30
2019-01-15T21:41:45.920Z,9.40
2019-01-15T21:44:13.514Z,9.40
2019-01-15T21:46:40.460Z,9.30
2019-01-15T21:49:07.073Z,9.00
2019-01-15T21:51:34.163Z,9.20
2019-01-15T21:54:01.026Z,9.50
2019-01-15T21:56:27.625Z,9.60
2019-01-15T21:58:54.755Z,9.40
2019-01-15T22:01:21.744Z,9.30
2019-01-15T22:03:48.374Z,9.20
2019-01-15T22:06:15.067Z,9.40
2019-01-15T22:08:42.070Z,9.20
2019-01-15T22:11:09.098Z,9.20
2019-01-15T22:13:36.482Z,9.10
2019-01-15T22:16:03.516Z,9.20
2019-01-15T22:18:30.149Z,9.10
2019-01-15T22:20:57.175Z,9.70
2019-01-15T22:23:24.983Z,9.70
2019-01-15T22:25:51.618Z,9.70
2019-01-15T22:28:18.638Z,9.50
2019-01-15T22:30:45.699Z,9.60
2019-01-15T22:33:12.341Z,9.70
2019-01-15T22:35:39.443Z,9.60
2019-01-15T22:38:06.432Z,9.80
2019-01-15T22:40:33.070Z,9.70
2019-01-15T22:43:00.232Z,9.50
2019-01-15T22:45:26.838Z,9.40
2019-01-15T22:47:55.091Z,9.30
2019-01-15T22:50:22.132Z,9.50
2019-01-15T22:52:49.739Z,9.50
2019-01-15T22:55:16.389Z,9.60
2019-01-15T22:57:43.431Z,9.70
2019-01-15T23:00:10.492Z,9.70
2019-01-15T23:02:37.195Z,9.70
2019-01-15T23:05:03.767Z,9.80
2019-01-15T23:07:30.788Z,10.00
2019-01-15T23:09:57.966Z,10.00
2019-01-15T23:12:24.608Z,9.80
2019-01-15T23:14:51.216Z,9.90
2019-01-15T23:17:18.337Z,10.00
2019-01-15T23:19:44.944Z,10.10
2019-01-15T23:22:12.028Z,10.00
2019-01-15T23:24:38.713Z,9.90
2019-01-15T23:27:05.755Z,9.90
2019-01-15T23:29:32.855Z,10.00
2019-01-15T23:32:00.015Z,10.50
2019-01-15T23:34:26.739Z,10.60
2019-01-15T23:36:53.684Z,10.80
2019-01-15T23:39:20.852Z,11.30
2019-01-15T23:41:48.024Z,11.40
2019-01-15T23:44:14.735Z,11.00
2019-01-15T23:46:41.447Z,11.10
2019-01-15T23:49:08.509Z,11.40
2019-01-15T23:51:35.707Z,11.60
2019-01-15T23:54:02.886Z,11.90
2019-01-15T23:56:29.610Z,12.20
2019-01-15T23:58:56.733Z,11.80
